Haines, AK

2:42 AM AKDT on July 29, 2014 (GMT -0800)
Haines (PAHN) Elev 16 ft | 59.24 °N, 135.51 °W | Change Station

Current weather conditions updated 14 minutes ago

Light Rain
Light Rain Mist
52 °F
Feels Like 52 °F
N
0
Wind Variable Wind from North

Today is forecast to be Cooler than yesterday. Chance of showers.

Today
High -- | Low -- °F
--% Chance of Precip.
Yesterday
High -- | Low -- °F
Precip. -- in
4:41 AM 9:33 PM
Waxing Crescent, 6% visible
Pressure 29.98 in
Visibility 3.0 miles
Clouds Mostly Cloudy 500 ft
Overcast 7500 ft
Dew Point 52 °F
Humidity 100%
Rainfall 0.01 in
Snow Depth Not available.
UV 0 out of 12
Pollen Not available.
Air Quality Not available.
Flu Activity Not available.
SPECI PAHN 291028Z AUTO 00000KT 3SM -RA BR BKN005 OVC075 11/11 A2998 RMK AO2 P0002 T01110111 TSNO

More Conditions Fewer Conditions

Pressure 29.98 in
Visibility 3.0 miles
Clouds Mostly Cloudy 500 ft
Overcast 7500 ft
Dew Point 52 °F
Humidity 100%
Rainfall 0.01 in
Snow Depth Not available.
UV 0 out of 12
Pollen Not available.
Air Quality Not available.
Flu Activity Not available.
SPECI PAHN 291028Z AUTO 00000KT 3SM -RA BR BKN005 OVC075 11/11 A2998 RMK AO2 P0002 T01110111 TSNO

More Conditions Fewer Conditions

10-Day Weather Forecast

Almanac

Astronomy

Jul. 29, 2014 Rise Set
Actual Time 4:41 AM AKDT 9:33 PM AKDT
Civil Twilight 3:41 AM AKDT 10:32 PM AKDT
Nautical Twilight 1:19 AM AKDT 12:36 AM AKDT
Astronomical Twilight Sun does not rise Sun does not rise
Moon 8:20 AM AKDT 9:47 PM AKDT
Length of Visible Light 18h 51m
Length of Day
16h 52m
Tomorrow will be 4m 32s shorter.
Waxing Crescent, 6% of the Moon is Illuminated
Today
Waxing Crescent
Aug 3
First Quarter
Aug 10
Full
Aug 17
Last Quarter
Aug 25
New

Today's Extremes

State Highs State Lows

Community

WunderPhotos

Upload Photos

1,738,683 photos uploaded!

Nearby

Snow Depth

Station Depth Elevation
Long Lake 0 in 820 ft
Upper Tsaina River 0 in 1750 ft
Moraine 0 in 2100 ft
Granite Creek 0 in 1240 ft
Grandview 0 in 1100 ft

Earthquake Activity

City Distance Mag. Time & Date
No recent earthquake activity has been reported nearby.
Minimum magnitude displayed is 2.5.

Coastal Water Temperatures

Place Temperature
No Stations Reporting

Nearby Weather Stations

Station Location Temp. Windchill Dew Point Humidity Wind Precip. Elev Updated Type
RAWS TAIYA RIVER AK, Skagway, AK 52 °F - 51 °F 98% North  at  1 mph 0.00 in / hr 49 ft 1:24 AM AKDT MADIS
AKDOT Haines Highway @ Chilkat River Bri, Haines, AK 53 °F - 52 °F 96% ENE  at  1 mph 0.02 in / hr 160 ft 1:51 AM AKDT MADIS
MARITIME , Haines, AK 52 °F - 50 °F 93% NNW  at  8 mph 0.00 in / hr 55 ft 1:00 AM AKDT MADIS
MARITIME , Auke Bay, AK 54 °F - - - North  at  5 mph 0.00 in / hr 0 ft 1:00 AM AKDT MADIS
RAWS GOAT LAKE AK, Skagway, AK 46 °F 46 °F 46 °F 100% North  at  - 0.00 in / hr 2924 ft 1:24 AM AKDT MADIS

Show More Stations Show Fewer Stations